Time;durP1;ratioP1;P1;durP2;ratioP2;P2;SDS_P1;SDS_P2;PMS_P1;PMS_P2;Temp;Humidity;BMP_temperature;BMP_pressure;BME280_temperature;BME280_humidity;BME280_pressure;Samples;Min_cycle;Max_cycle;Signal;HPM_P1;HPM_P2
2023/10/05 00:04:29;;;;;;;18.35;5.30;;;10.30;99.90;;;;;;5085571;27;20043;-66
2023/10/05 00:06:56;;;;;;;22.10;6.13;;;10.30;99.90;;;;;;5093772;28;20028;-64
2023/10/05 00:09:24;;;;;;;21.75;5.57;;;10.20;99.90;;;;;;5089398;28;20046;-65
2023/10/05 00:11:56;;;;;;;20.52;5.15;;;10.20;99.90;;;;;;5090997;28;20012;-68
2023/10/05 00:14:24;;;;;;;14.68;5.18;;;10.30;99.90;;;;;;5093838;28;20024;-66
2023/10/05 00:16:49;;;;;;;21.90;5.15;;;10.40;99.90;;;;;;5091821;28;20112;-66
2023/10/05 00:19:17;;;;;;;12.73;4.65;;;10.40;99.90;;;;;;5094386;28;20114;-63
2023/10/05 00:21:51;;;;;;;16.60;4.63;;;10.40;99.90;;;;;;5093607;28;20051;-65
2023/10/05 00:24:28;;;;;;;;;;;10.40;99.90;;;;;;5092641;28;20100;-65
2023/10/05 00:26:56;;;;;;;15.13;4.75;;;10.40;99.90;;;;;;5094328;28;20022;-66
2023/10/05 00:29:27;;;;;;;14.82;4.63;;;10.40;99.90;;;;;;5096858;28;20107;-63
2023/10/05 00:31:58;;;;;;;17.67;4.53;;;10.50;99.90;;;;;;5090951;28;20473;-66
2023/10/05 00:34:28;;;;;;;12.18;4.43;;;10.50;99.90;;;;;;5089319;28;20027;-64
2023/10/05 00:36:59;;;;;;;16.45;5.72;;;10.50;99.90;;;;;;5087930;28;20020;-65
2023/10/05 00:39:26;;;;;;;10.40;4.35;;;10.60;99.90;;;;;;5091553;28;20032;-66
2023/10/05 00:42:08;;;;;;;22.90;4.88;;;10.70;99.90;;;;;;5091092;28;20085;-65
2023/10/05 00:44:35;;;;;;;11.70;5.03;;;10.70;99.90;;;;;;5075074;28;20112;-65
2023/10/05 00:47:03;;;;;;;14.07;4.22;;;10.80;99.90;;;;;;5067989;28;20564;-66
2023/10/05 00:49:37;;;;;;;12.43;4.60;;;10.80;99.90;;;;;;5089520;28;20031;-70
2023/10/05 00:52:15;;;;;;;16.85;4.40;;;10.90;99.90;;;;;;5070338;28;20024;-65
2023/10/05 00:54:51;;;;;;;12.70;4.22;;;11.00;99.90;;;;;;5092336;28;20028;-62
2023/10/05 00:57:19;;;;;;;10.75;3.72;;;11.00;99.90;;;;;;5090619;28;20497;-65
2023/10/05 00:59:59;;;;;;;15.55;3.65;;;11.00;99.90;;;;;;5090052;28;20032;-64
2023/10/05 01:02:26;;;;;;;12.05;4.05;;;11.10;99.90;;;;;;5087624;28;20024;-67
2023/10/05 01:05:06;;;;;;;13.15;4.20;;;11.10;99.90;;;;;;5092359;28;20028;-68
2023/10/05 01:07:49;;;;;;;12.10;3.60;;;11.10;99.90;;;;;;5087904;28;20047;-65
2023/10/05 01:10:22;;;;;;;18.38;4.40;;;11.20;99.90;;;;;;5088095;28;20527;-66
2023/10/05 01:12:48;;;;;;;11.60;4.70;;;11.20;99.90;;;;;;5087227;28;20535;-66
2023/10/05 01:15:19;;;;;;;12.93;5.07;;;11.20;99.90;;;;;;5090385;28;20102;-59
2023/10/05 01:17:53;;;;;;;11.45;3.90;;;11.20;99.90;;;;;;5089793;28;20036;-67
2023/10/05 01:22:45;;;;;;;10.80;3.83;;;11.30;99.90;;;;;;5091304;28;19969;-66
2023/10/05 01:25:14;;;;;;;10.55;3.55;;;11.20;99.90;;;;;;5091034;28;20664;-65
2023/10/05 01:27:50;;;;;;;12.77;4.65;;;11.20;99.90;;;;;;5092646;28;20628;-66
2023/10/05 01:30:16;;;;;;;17.25;3.50;;;11.20;99.90;;;;;;5072004;28;20046;-66
2023/10/05 01:32:47;;;;;;;9.93;3.65;;;11.30;99.90;;;;;;5089614;28;20059;-65
2023/10/05 01:35:14;;;;;;;12.35;3.88;;;11.30;99.90;;;;;;5089061;28;20030;-62
2023/10/05 01:37:41;;;;;;;9.45;3.90;;;11.30;99.90;;;;;;5086808;28;20434;-67
2023/10/05 01:42:48;;;;;;;10.57;4.65;;;11.30;99.90;;;;;;5090024;28;20065;-68
2023/10/05 01:45:17;;;;;;;17.33;4.50;;;11.30;99.90;;;;;;5087246;28;20292;-58
2023/10/05 01:47:46;;;;;;;11.10;3.70;;;11.30;99.90;;;;;;5088307;28;20023;-66
2023/10/05 01:50:16;;;;;;;16.13;4.32;;;11.30;99.90;;;;;;5085507;28;20024;-65
2023/10/05 01:52:42;;;;;;;12.27;4.40;;;11.30;99.90;;;;;;5069370;28;20024;-66
2023/10/05 01:55:11;;;;;;;16.15;3.88;;;11.30;99.90;;;;;;5091824;28;20031;-65
2023/10/05 01:57:41;;;;;;;14.50;3.88;;;11.30;99.90;;;;;;5093415;28;20031;-65
2023/10/05 02:00:14;;;;;;;15.07;3.88;;;11.30;99.90;;;;;;5089994;28;20119;-66
2023/10/05 02:02:42;;;;;;;15.95;3.95;;;11.30;99.90;;;;;;5089894;28;20077;-66
2023/10/05 02:05:09;;;;;;;14.93;3.65;;;11.30;99.90;;;;;;5089997;28;20400;-66
2023/10/05 02:07:36;;;;;;;9.70;3.80;;;11.30;99.90;;;;;;5092131;28;20428;-66
2023/10/05 02:10:08;;;;;;;18.20;5.20;;;11.30;99.90;;;;;;5088203;28;20024;-65
2023/10/05 02:12:34;;;;;;;13.45;3.67;;;11.30;99.90;;;;;;5089600;28;20025;-66
2023/10/05 02:15:01;;;;;;;12.82;4.10;;;11.30;99.90;;;;;;5089341;28;20019;-67
2023/10/05 02:17:27;;;;;;;13.82;3.25;;;11.30;99.90;;;;;;5090733;28;20020;-68
2023/10/05 02:19:53;;;;;;;13.77;4.38;;;11.30;99.90;;;;;;5086566;28;20107;-64
2023/10/05 02:22:22;;;;;;;11.73;4.28;;;11.40;99.90;;;;;;5086302;28;20139;-66
2023/10/05 02:24:51;;;;;;;10.65;3.45;;;11.50;99.90;;;;;;5091802;28;20016;-66
2023/10/05 02:27:17;;;;;;;16.15;4.90;;;11.50;99.90;;;;;;5087837;28;20032;-65
2023/10/05 02:29:44;;;;;;;11.60;3.72;;;11.50;99.90;;;;;;5090834;28;20081;-67
2023/10/05 02:32:11;;;;;;;12.82;4.07;;;11.60;99.90;;;;;;5092089;28;20044;-65
2023/10/05 02:37:04;;;;;;;17.33;3.50;;;11.60;99.90;;;;;;5092329;28;20020;-67
2023/10/05 02:39:32;;;;;;;15.82;3.38;;;11.60;99.90;;;;;;5094451;28;20020;-66
2023/10/05 02:41:58;;;;;;;11.48;4.13;;;11.50;99.90;;;;;;5073699;28;20051;-66
2023/10/05 02:44:30;;;;;;;13.13;4.55;;;11.50;99.90;;;;;;5091408;28;20557;-66
2023/10/05 02:46:56;;;;;;;12.05;3.22;;;11.50;99.90;;;;;;5093683;28;20020;-65
2023/10/05 02:49:25;;;;;;;8.32;3.05;;;11.50;99.90;;;;;;5087638;28;20032;-65
2023/10/05 02:51:54;;;;;;;19.40;4.18;;;11.50;99.90;;;;;;5091763;28;20111;-65
2023/10/05 02:54:24;;;;;;;8.93;3.55;;;11.40;99.90;;;;;;5063924;28;20028;-66
2023/10/05 02:56:53;;;;;;;16.83;3.88;;;11.40;99.90;;;;;;5094282;28;20092;-67
2023/10/05 02:59:21;;;;;;;14.55;4.07;;;11.30;99.90;;;;;;5100749;28;20500;-65
2023/10/05 03:01:47;;;;;;;14.35;4.13;;;11.30;99.90;;;;;;5104723;28;20077;-66
2023/10/05 03:06:39;;;;;;;13.02;4.18;;;11.20;99.90;;;;;;5091683;28;20493;-65
2023/10/05 03:09:08;;;;;;;15.63;3.78;;;11.20;99.90;;;;;;5092042;28;20070;-63
2023/10/05 03:11:40;;;;;;;11.55;3.80;;;11.10;99.90;;;;;;5089230;28;20027;-65
2023/10/05 03:14:10;;;;;;;7.25;4.07;;;11.00;99.90;;;;;;5093619;28;20028;-66
2023/10/05 03:16:43;;;;;;;10.00;3.05;;;11.00;99.90;;;;;;5089260;28;20103;-66
2023/10/05 03:19:20;;;;;;;11.23;3.83;;;11.00;99.90;;;;;;5101717;28;20051;-65
2023/10/05 03:21:58;;;;;;;7.07;3.33;;;11.00;99.90;;;;;;5096629;28;20370;-66
2023/10/05 03:24:25;;;;;;;9.98;3.88;;;11.00;99.90;;;;;;5095920;28;20020;-66
2023/10/05 03:26:56;;;;;;;9.55;3.28;;;11.00;99.90;;;;;;5090931;28;20032;-65
2023/10/05 03:29:23;;;;;;;9.65;3.60;;;11.10;99.90;;;;;;5096500;28;20032;-65
2023/10/05 03:34:34;;;;;;;10.70;4.22;;;11.10;99.90;;;;;;5101110;28;20031;-66
2023/10/05 03:37:04;;;;;;;9.10;3.35;;;11.20;99.90;;;;;;5101409;28;20031;-66
2023/10/05 03:39:33;;;;;;;8.68;3.38;;;11.10;99.90;;;;;;5084867;28;20036;-66
2023/10/05 03:41:59;;;;;;;14.93;3.38;;;11.10;99.90;;;;;;5079931;28;20035;-64
2023/10/05 03:44:25;;;;;;;17.95;3.33;;;11.10;99.90;;;;;;5096684;28;20040;-65
2023/10/05 03:46:52;;;;;;;12.18;4.70;;;11.10;99.90;;;;;;5090978;28;20541;-65
2023/10/05 03:49:21;;;;;;;10.30;4.10;;;11.10;99.90;;;;;;5090434;28;20151;-65
2023/10/05 03:51:50;;;;;;;9.60;2.85;;;11.00;99.90;;;;;;5106154;28;20137;-65
2023/10/05 03:54:18;;;;;;;14.43;3.75;;;11.00;99.90;;;;;;5102557;28;20077;-66
2023/10/05 03:57:04;;;;;;;11.15;3.47;;;11.00;99.90;;;;;;5099083;28;20024;-65
2023/10/05 03:59:30;;;;;;;19.63;3.67;;;11.00;99.90;;;;;;5098071;28;20031;-65
2023/10/05 04:01:56;;;;;;;10.85;2.95;;;10.90;99.90;;;;;;5093032;28;20028;-66
2023/10/05 04:04:22;;;;;;;12.80;4.53;;;11.00;99.90;;;;;;5093150;28;20472;-66
2023/10/05 04:06:51;;;;;;;10.00;3.45;;;11.00;99.90;;;;;;5083197;28;20027;-65
2023/10/05 04:09:19;;;;;;;11.05;3.10;;;11.00;99.90;;;;;;5097818;28;20033;-65
2023/10/05 04:11:45;;;;;;;11.55;4.25;;;11.00;99.90;;;;;;5090055;28;20049;-66
2023/10/05 04:14:12;;;;;;;9.88;2.97;;;11.00;99.90;;;;;;5096037;28;20016;-66
2023/10/05 04:16:38;;;;;;;15.15;2.88;;;11.10;99.90;;;;;;5090188;28;20035;-68
2023/10/05 04:19:04;;;;;;;13.52;3.95;;;11.10;99.90;;;;;;5092028;28;20119;-66
2023/10/05 04:21:32;;;;;;;10.73;3.25;;;11.20;99.90;;;;;;5091237;28;20111;-65
2023/10/05 04:23:59;;;;;;;14.98;3.70;;;11.20;99.90;;;;;;5092166;28;20024;-69
2023/10/05 04:26:39;;;;;;;7.70;2.83;;;11.30;99.90;;;;;;5091291;28;20032;-63
2023/10/05 04:29:07;;;;;;;7.97;2.92;;;11.30;99.90;;;;;;5094000;28;20085;-66
2023/10/05 04:31:36;;;;;;;10.55;3.75;;;11.20;99.90;;;;;;5093927;28;20039;-66
2023/10/05 04:34:05;;;;;;;10.80;3.22;;;11.20;99.90;;;;;;5074323;28;20028;-67
2023/10/05 04:36:31;;;;;;;7.30;3.00;;;11.20;99.90;;;;;;5091389;28;20020;-65
2023/10/05 04:38:58;;;;;;;8.40;3.13;;;11.20;99.90;;;;;;5080674;28;20038;-66
2023/10/05 04:41:33;;;;;;;8.32;2.47;;;11.10;99.90;;;;;;5091842;28;20051;-65
2023/10/05 04:43:59;;;;;;;10.65;2.80;;;11.10;99.90;;;;;;5092926;28;20126;-65
2023/10/05 04:46:28;;;;;;;19.33;3.53;;;11.10;99.90;;;;;;5073647;28;20035;-63
2023/10/05 04:49:09;;;;;;;7.80;2.65;;;11.00;99.90;;;;;;5090127;28;20031;-66
2023/10/05 04:51:40;;;;;;;12.63;3.58;;;11.10;99.90;;;;;;5094927;28;20025;-65
2023/10/05 04:54:10;;;;;;;12.75;2.83;;;11.10;99.90;;;;;;5090071;28;20015;-65
2023/10/05 05:04:40;;;;;;;8.43;2.45;;;11.20;99.90;;;;;;5090027;28;20028;-67
2023/10/05 05:07:07;;;;;;;11.80;2.53;;;11.20;99.90;;;;;;5090297;28;20071;-63
2023/10/05 05:09:34;;;;;;;8.73;3.13;;;11.20;99.90;;;;;;5092273;28;20028;-61
2023/10/05 05:12:04;;;;;;;15.45;3.55;;;11.20;99.90;;;;;;5093883;28;20028;-65
2023/10/05 05:14:33;;;;;;;15.05;3.42;;;11.20;99.90;;;;;;5090699;28;20073;-66
2023/10/05 05:17:06;;;;;;;13.32;3.83;;;11.20;99.90;;;;;;5081661;28;20561;-66
2023/10/05 05:19:32;;;;;;;15.70;4.15;;;11.20;99.90;;;;;;5087632;28;20119;-65
2023/10/05 05:22:03;;;;;;;13.80;3.25;;;11.20;99.90;;;;;;5097200;28;20032;-66
2023/10/05 05:24:29;;;;;;;11.88;3.05;;;11.20;99.90;;;;;;5089021;28;20024;-65
2023/10/05 05:27:03;;;;;;;10.45;3.45;;;11.20;99.90;;;;;;5091401;28;20094;-65
2023/10/05 05:29:32;;;;;;;8.55;3.10;;;11.20;99.90;;;;;;5091009;28;20123;-64
2023/10/05 05:32:10;;;;;;;11.30;3.47;;;11.30;99.90;;;;;;5086500;28;20024;-65
2023/10/05 05:34:43;;;;;;;15.25;4.85;;;11.30;99.90;;;;;;5092990;28;20133;-65
2023/10/05 05:37:28;;;;;;;8.90;3.73;;;11.30;99.90;;;;;;5089566;28;20028;-66
2023/10/05 05:40:12;;;;;;;11.07;3.88;;;11.40;99.90;;;;;;5088744;28;20020;-65
2023/10/05 05:42:39;;;;;;;11.20;2.72;;;11.40;99.90;;;;;;5090400;28;20127;-64
2023/10/05 05:45:18;;;;;;;13.77;3.20;;;11.40;99.90;;;;;;5090956;28;20031;-66
2023/10/05 05:47:45;;;;;;;11.70;4.32;;;11.40;99.90;;;;;;5091328;28;20040;-66
2023/10/05 05:50:17;;;;;;;10.32;3.58;;;11.40;99.90;;;;;;5091495;28;20016;-65
2023/10/05 05:52:47;;;;;;;13.48;3.10;;;11.40;99.90;;;;;;5090877;28;20138;-65
2023/10/05 05:55:20;;;;;;;12.98;3.30;;;11.40;99.90;;;;;;5072794;28;20043;-65
2023/10/05 05:57:46;;;;;;;12.80;2.67;;;11.40;99.90;;;;;;5094291;28;20034;-65
2023/10/05 06:00:12;;;;;;;8.65;3.60;;;11.40;99.90;;;;;;5091745;28;20020;-65
2023/10/05 06:02:43;;;;;;;14.70;3.35;;;11.40;99.90;;;;;;5088361;28;20405;-65
2023/10/05 06:05:09;;;;;;;6.43;2.63;;;11.50;99.90;;;;;;5093667;28;20439;-63
2023/10/05 06:07:42;;;;;;;8.68;2.53;;;11.50;99.90;;;;;;5087988;28;20036;-66
2023/10/05 06:10:12;;;;;;;8.30;3.60;;;11.50;99.90;;;;;;5088442;28;20412;-65
2023/10/05 06:12:50;;;;;;;7.70;3.05;;;11.50;99.90;;;;;;5088050;28;20031;-66
2023/10/05 06:15:16;;;;;;;13.10;2.70;;;11.50;99.90;;;;;;5095951;28;20020;-65
2023/10/05 06:17:43;;;;;;;14.07;3.30;;;11.60;99.90;;;;;;5084899;28;20512;-65
2023/10/05 06:20:19;;;;;;;7.85;3.03;;;11.60;99.90;;;;;;5077186;28;20103;-65
2023/10/05 06:22:47;;;;;;;7.78;2.42;;;11.60;99.90;;;;;;5090126;28;20153;-65
2023/10/05 06:25:16;;;;;;;21.27;3.65;;;11.60;99.90;;;;;;5073280;28;20428;-65
2023/10/05 06:27:47;;;;;;;11.43;3.55;;;11.60;99.90;;;;;;5087169;28;20020;-65
2023/10/05 06:30:16;;;;;;;15.43;2.78;;;11.70;99.90;;;;;;5089347;28;20060;-65
2023/10/05 06:32:45;;;;;;;8.60;3.85;;;11.70;99.90;;;;;;5079519;28;20129;-65
2023/10/05 06:35:13;;;;;;;6.78;2.67;;;11.80;99.90;;;;;;5100570;28;20028;-64
2023/10/05 06:37:42;;;;;;;8.43;2.83;;;11.90;99.90;;;;;;5095524;28;20034;-65
2023/10/05 06:40:21;;;;;;;10.43;3.08;;;12.00;99.90;;;;;;5088960;28;20492;-65
2023/10/05 06:42:51;;;;;;;10.00;2.55;;;12.10;99.90;;;;;;5089681;28;20020;-66
2023/10/05 06:45:19;;;;;;;6.07;3.13;;;12.20;99.90;;;;;;5095403;28;20062;-65
2023/10/05 06:47:45;;;;;;;5.70;2.28;;;12.30;99.90;;;;;;5095517;28;20024;-65
2023/10/05 06:50:11;;;;;;;6.18;2.63;;;12.50;99.90;;;;;;5096299;28;20016;-65
2023/10/05 06:52:46;;;;;;;6.15;2.58;;;12.60;99.90;;;;;;5089937;28;20039;-65
2023/10/05 06:55:13;;;;;;;10.50;3.42;;;12.70;99.90;;;;;;5092039;28;20050;-65
2023/10/05 06:57:43;;;;;;;8.18;2.80;;;12.70;99.90;;;;;;5092973;28;20113;-65
2023/10/05 07:00:16;;;;;;;8.02;2.97;;;12.90;99.90;;;;;;5092820;28;20413;-65
2023/10/05 07:02:47;;;;;;;9.57;3.53;;;12.90;99.90;;;;;;5072852;28;20497;-66
2023/10/05 07:05:13;;;;;;;11.80;2.65;;;12.90;99.90;;;;;;5084606;28;20142;-67
2023/10/05 07:07:40;;;;;;;11.68;2.95;;;12.90;99.90;;;;;;5096967;28;20027;-66
2023/10/05 07:10:08;;;;;;;13.07;3.42;;;13.00;99.90;;;;;;5093610;28;20757;-66
2023/10/05 07:13:09;;;;;;;13.38;2.95;;;12.90;99.90;;;;;;5086859;28;20469;-65
2023/10/05 07:15:26;;;;;;;10.38;3.25;;;13.00;99.90;;;;;;5089323;28;20033;-66
2023/10/05 07:17:52;;;;;;;7.65;2.67;;;13.00;99.90;;;;;;5092310;28;20027;-68
2023/10/05 07:20:18;;;;;;;10.30;3.08;;;13.10;99.90;;;;;;5086387;28;20415;-65
2023/10/05 07:22:46;;;;;;;7.75;2.85;;;13.10;99.90;;;;;;5077391;28;20034;-66
2023/10/05 07:25:12;;;;;;;7.72;3.00;;;13.20;99.90;;;;;;5091618;28;20100;-64
2023/10/05 07:27:39;;;;;;;9.80;3.38;;;13.20;99.90;;;;;;5093302;28;20028;-66
2023/10/05 07:30:06;;;;;;;7.22;2.33;;;13.20;99.90;;;;;;5090768;28;20049;-66
2023/10/05 07:32:35;;;;;;;11.85;2.47;;;13.30;99.90;;;;;;5093131;28;20039;-67
2023/10/05 07:35:02;;;;;;;8.88;2.72;;;13.40;99.90;;;;;;5095426;28;20069;-67
2023/10/05 07:37:29;;;;;;;6.47;2.42;;;13.40;99.90;;;;;;5092811;28;20100;-65
2023/10/05 07:39:55;;;;;;;10.07;2.67;;;13.50;99.90;;;;;;5086004;28;20032;-66
2023/10/05 07:42:22;;;;;;;7.38;2.40;;;13.50;99.90;;;;;;5093613;28;20031;-66
2023/10/05 07:44:47;;;;;;;11.00;2.67;;;13.50;99.90;;;;;;5090976;28;20028;-66
2023/10/05 07:47:13;;;;;;;13.50;3.05;;;13.60;99.90;;;;;;5092568;28;20491;-65
2023/10/05 07:49:41;;;;;;;8.73;2.88;;;13.70;99.90;;;;;;5091233;28;20129;-65
2023/10/05 07:52:09;;;;;;;10.13;3.20;;;13.70;99.90;;;;;;5095969;28;20477;-66
2023/10/05 07:54:37;;;;;;;9.30;2.55;;;13.80;99.90;;;;;;5095073;28;20079;-65
2023/10/05 07:57:10;;;;;;;8.13;3.00;;;13.80;99.90;;;;;;5095070;28;20077;-63
2023/10/05 07:59:43;;;;;;;8.20;2.85;;;13.90;99.90;;;;;;5094417;28;20031;-65
2023/10/05 08:02:13;;;;;;;10.60;2.75;;;14.00;99.90;;;;;;5091181;28;20035;-65
2023/10/05 08:04:39;;;;;;;14.10;4.15;;;14.10;99.90;;;;;;5093452;28;20113;-65
2023/10/05 08:07:05;;;;;;;6.38;2.05;;;14.20;99.90;;;;;;5094449;28;20701;-65
2023/10/05 08:09:30;;;;;;;9.40;2.78;;;14.40;99.90;;;;;;5089112;28;20451;-66
2023/10/05 08:11:59;;;;;;;7.10;2.50;;;14.50;99.90;;;;;;5090695;28;20020;-65
2023/10/05 08:14:27;;;;;;;10.02;3.03;;;14.60;99.90;;;;;;5097019;28;20016;-65
2023/10/05 08:16:56;;;;;;;6.03;2.42;;;14.80;99.90;;;;;;5094381;28;20542;-66
2023/10/05 08:19:25;;;;;;;5.88;2.95;;;14.80;99.90;;;;;;5091900;28;20107;-65
2023/10/05 08:21:53;;;;;;;12.48;2.75;;;15.00;99.90;;;;;;5090240;28;20027;-65
2023/10/05 08:24:23;;;;;;;8.40;2.22;;;15.30;99.90;;;;;;5091139;28;20046;-66
2023/10/05 08:26:52;;;;;;;8.35;3.00;;;15.40;99.90;;;;;;5090048;28;20119;-66
2023/10/05 08:29:22;;;;;;;7.65;2.50;;;15.60;99.90;;;;;;5091082;28;20404;-66
2023/10/05 08:31:51;;;;;;;7.65;2.78;;;15.70;99.90;;;;;;5098202;28;20016;-65
2023/10/05 08:34:20;;;;;;;11.50;2.40;;;15.90;99.90;;;;;;5092049;28;20117;-66
2023/10/05 08:36:49;;;;;;;13.73;3.28;;;16.20;99.90;;;;;;5095146;28;20047;-64
2023/10/05 08:39:23;;;;;;;7.57;2.28;;;16.30;99.90;;;;;;5087974;28;20142;-65
2023/10/05 08:41:48;;;;;;;9.52;3.35;;;16.60;99.90;;;;;;5089294;28;20580;-65
2023/10/05 08:44:26;;;;;;;7.45;3.10;;;16.60;99.90;;;;;;5090850;28;20035;-66
2023/10/05 08:46:55;;;;;;;6.03;1.80;;;16.70;99.90;;;;;;5087774;28;20024;-66
2023/10/05 08:49:26;;;;;;;9.52;2.38;;;16.70;99.90;;;;;;5087567;28;20038;-65
2023/10/05 08:51:52;;;;;;;9.38;2.25;;;16.70;99.90;;;;;;5090046;28;20046;-66
2023/10/05 08:54:28;;;;;;;7.95;2.13;;;16.70;99.90;;;;;;5093527;28;20023;-65
2023/10/05 08:56:57;;;;;;;4.93;1.90;;;16.70;99.90;;;;;;5095154;28;20078;-67
2023/10/05 08:59:26;;;;;;;8.57;2.67;;;16.80;99.90;;;;;;5089851;28;20015;-66
2023/10/05 09:01:54;;;;;;;9.63;2.15;;;16.90;99.90;;;;;;5094599;28;20107;-67
2023/10/05 09:07:08;;;;;;;7.80;2.28;;;17.30;99.90;;;;;;5091694;28;20039;-65
2023/10/05 09:09:39;;;;;;;11.82;2.65;;;17.40;99.90;;;;;;5083924;28;20405;-67
2023/10/05 09:12:34;;;;;;;9.10;2.08;;;17.80;99.90;;;;;;5087518;28;20024;-64
2023/10/05 09:15:22;;;;;;;13.48;2.72;;;18.00;99.90;;;;;;5074344;28;20043;-65
2023/10/05 09:17:59;;;;;;;7.30;2.03;;;18.00;99.90;;;;;;5090630;28;20024;-66
2023/10/05 09:20:33;;;;;;;11.32;2.03;;;17.80;99.90;;;;;;5084909;28;20047;-66
2023/10/05 09:23:00;;;;;;;;;;;17.80;99.90;;;;;;5094037;28;20122;-67
2023/10/05 09:25:44;;;;;;;9.85;1.92;;;17.70;99.90;;;;;;5100852;28;19911;-65
2023/10/05 09:28:15;;;;;;;9.73;2.60;;;17.60;99.90;;;;;;5089382;28;20637;-65
2023/10/05 09:30:59;;;;;;;5.53;1.73;;;17.60;99.90;;;;;;5090845;28;20020;-64
2023/10/05 09:33:27;;;;;;;6.97;1.90;;;17.70;99.90;;;;;;5088075;28;20023;-67
2023/10/05 09:36:06;;;;;;;7.30;2.05;;;17.70;99.90;;;;;;5087310;28;20485;-66
2023/10/05 09:38:38;;;;;;;7.95;2.10;;;17.70;99.90;;;;;;5094562;28;20481;-65
2023/10/05 09:41:05;;;;;;;7.47;1.52;;;17.90;99.90;;;;;;5084478;28;20064;-65
2023/10/05 09:43:37;;;;;;;7.22;1.50;;;17.80;99.90;;;;;;5081525;28;20081;-65
2023/10/05 09:46:09;;;;;;;7.85;1.92;;;17.70;99.90;;;;;;5090420;28;20024;-64
2023/10/05 09:48:37;;;;;;;11.27;2.83;;;17.70;99.90;;;;;;5088906;28;20035;-66
2023/10/05 09:51:06;;;;;;;15.60;2.60;;;17.50;99.90;;;;;;5071207;28;20114;-65
2023/10/05 09:53:35;;;;;;;5.82;1.45;;;17.40;99.90;;;;;;5086050;28;20028;-65
2023/10/05 09:56:01;;;;;;;8.43;1.70;;;17.30;99.90;;;;;;5093776;28;20091;-65
2023/10/05 09:58:28;;;;;;;11.20;2.03;;;17.20;99.90;;;;;;5086564;28;20131;-66
2023/10/05 10:00:55;;;;;;;4.93;1.40;;;17.30;99.90;;;;;;5056933;28;20085;-65
2023/10/05 10:03:22;;;;;;;7.18;2.10;;;17.20;99.90;;;;;;5091476;28;20024;-66
2023/10/05 10:06:08;;;;;;;5.43;1.52;;;17.20;99.90;;;;;;5099795;28;20019;-66
2023/10/05 10:08:50;;;;;;;7.53;1.88;;;17.20;99.90;;;;;;5096698;28;20492;-65
2023/10/05 10:11:23;;;;;;;11.07;1.90;;;17.20;99.90;;;;;;5100662;28;20020;-65
2023/10/05 10:14:06;;;;;;;6.15;1.48;;;17.20;99.90;;;;;;5099346;28;20028;-64
2023/10/05 10:16:41;;;;;;;6.00;1.90;;;17.10;99.90;;;;;;5092028;28;20016;-66
2023/10/05 10:19:19;;;;;;;9.98;2.22;;;17.10;99.90;;;;;;5096095;28;20032;-65
2023/10/05 10:21:46;;;;;;;7.35;1.60;;;17.00;99.90;;;;;;5090205;28;20122;-66
2023/10/05 10:24:18;;;;;;;7.57;1.85;;;17.10;99.90;;;;;;5100026;28;20060;-65
2023/10/05 10:26:52;;;;;;;4.57;1.90;;;17.20;99.90;;;;;;5087491;28;20042;-65
2023/10/05 10:29:20;;;;;;;;;;;17.40;99.90;;;;;;5093669;28;20028;-66
2023/10/05 10:32:24;;;;;;;9.40;2.05;;;17.40;99.90;;;;;;5089447;28;19908;-66
2023/10/05 10:35:07;;;;;;;10.10;2.95;;;17.60;99.90;;;;;;5090324;28;20013;-66
2023/10/05 10:37:44;;;;;;;8.32;1.33;;;17.60;99.90;;;;;;5094351;28;20066;-65
2023/10/05 10:42:55;;;;;;;6.22;1.38;;;17.80;99.90;;;;;;5091672;28;20033;-65
2023/10/05 10:45:28;;;;;;;6.05;2.00;;;17.80;99.90;;;;;;5091790;28;20043;-67
2023/10/05 10:47:54;;;;;;;4.50;1.73;;;17.60;99.90;;;;;;5088019;28;20023;-65
2023/10/05 10:50:24;;;;;;;7.57;1.73;;;17.70;99.90;;;;;;5089859;28;20122;-66
2023/10/05 10:52:50;;;;;;;13.50;1.75;;;17.60;99.90;;;;;;5094234;28;20023;-66
2023/10/05 10:55:17;;;;;;;3.60;1.55;;;17.50;99.90;;;;;;5090376;28;20493;-65
2023/10/05 10:57:53;;;;;;;13.43;3.55;;;17.60;99.90;;;;;;5090416;28;20045;-65
2023/10/05 11:03:15;;;;;;;8.63;2.70;;;17.30;99.90;;;;;;5088038;28;20093;-65
2023/10/05 11:05:54;;;;;;;7.75;1.35;;;17.40;99.90;;;;;;5091817;28;20016;-67
2023/10/05 11:08:20;;;;;;;12.23;1.85;;;17.30;99.90;;;;;;5096020;28;20055;-67
2023/10/05 11:11:09;;;;;;;7.05;2.17;;;17.30;99.90;;;;;;5092161;28;20032;-65
2023/10/05 11:13:49;;;;;;;10.82;1.85;;;17.40;99.90;;;;;;5073386;28;20026;-65
2023/10/05 11:16:19;;;;;;;5.35;2.78;;;17.20;99.90;;;;;;5094387;28;20012;-65
2023/10/05 11:18:57;;;;;;;11.60;1.75;;;17.20;99.90;;;;;;5090868;28;20557;-65
2023/10/05 11:21:26;;;;;;;4.25;1.50;;;17.30;99.90;;;;;;5094423;28;20036;-66
2023/10/05 11:23:56;;;;;;;10.95;1.80;;;17.40;99.90;;;;;;5091569;28;20028;-65
2023/10/05 11:26:27;;;;;;;8.25;1.77;;;17.50;99.90;;;;;;5090383;28;20119;-64
2023/10/05 11:28:56;;;;;;;4.95;1.48;;;17.60;99.90;;;;;;5090999;28;20036;-66
2023/10/05 11:31:24;;;;;;;4.47;1.40;;;17.60;99.90;;;;;;5094033;28;20432;-66
2023/10/05 11:33:53;;;;;;;5.85;1.67;;;17.60;99.90;;;;;;5093427;28;20509;-66
2023/10/05 11:36:27;;;;;;;8.23;1.70;;;17.70;99.90;;;;;;5095578;28;20098;-66
2023/10/05 11:38:57;;;;;;;4.28;1.25;;;17.70;99.90;;;;;;5099108;28;20115;-64
2023/10/05 11:41:28;;;;;;;4.50;1.88;;;17.60;99.90;;;;;;5071017;28;20116;-67
2023/10/05 11:43:55;;;;;;;5.30;1.38;;;17.60;99.90;;;;;;5083940;28;20020;-66
2023/10/05 11:46:24;;;;;;;7.50;1.95;;;17.70;99.90;;;;;;5086730;28;20519;-66
2023/10/05 11:48:54;;;;;;;4.10;1.40;;;17.90;99.90;;;;;;5065413;28;20488;-65
2023/10/05 11:51:36;;;;;;;7.57;2.42;;;17.90;99.90;;;;;;5083726;28;20024;-66
2023/10/05 11:54:01;;;;;;;4.25;1.45;;;17.80;99.90;;;;;;5088503;28;20384;-66
2023/10/05 11:56:30;;;;;;;5.75;1.52;;;17.90;99.90;;;;;;5096292;28;20160;-65
2023/10/05 11:58:59;;;;;;;4.78;1.60;;;17.80;99.90;;;;;;5087335;28;20080;-66
2023/10/05 12:01:25;;;;;;;13.52;2.22;;;17.80;99.90;;;;;;5064605;28;20501;-65
2023/10/05 12:03:50;;;;;;;7.43;1.90;;;17.80;99.90;;;;;;5088706;28;20095;-65
2023/10/05 12:06:23;;;;;;;8.38;2.33;;;17.70;99.90;;;;;;5095737;28;20374;-65
2023/10/05 12:08:53;;;;;;;6.00;1.65;;;17.70;99.90;;;;;;5091846;28;20016;-65
2023/10/05 12:11:23;;;;;;;5.82;1.75;;;17.50;99.90;;;;;;5086089;28;20397;-66
2023/10/05 12:13:50;;;;;;;7.68;1.85;;;17.70;99.90;;;;;;5097189;28;20016;-65
2023/10/05 12:16:16;;;;;;;7.45;1.98;;;17.80;99.90;;;;;;5090076;28;20024;-65
2023/10/05 12:18:42;;;;;;;9.82;2.20;;;17.70;99.90;;;;;;5096298;28;20118;-65
2023/10/05 12:21:09;;;;;;;7.25;1.73;;;17.70;99.90;;;;;;5084997;28;20111;-66
2023/10/05 12:23:35;;;;;;;15.45;2.03;;;17.60;99.90;;;;;;5098443;28;20024;-65
2023/10/05 12:26:04;;;;;;;5.07;1.83;;;17.60;99.90;;;;;;5082135;28;20070;-66
2023/10/05 12:28:30;;;;;;;8.10;1.90;;;17.60;99.90;;;;;;5086677;28;20034;-66
2023/10/05 12:30:55;;;;;;;6.00;1.77;;;17.60;99.90;;;;;;5082970;28;20029;-64
2023/10/05 12:33:21;;;;;;;9.07;1.70;;;17.60;99.90;;;;;;5092865;28;20500;-65
2023/10/05 12:35:52;;;;;;;13.18;2.28;;;17.80;99.90;;;;;;5085201;28;20107;-66
2023/10/05 12:38:21;;;;;;;8.38;1.83;;;17.90;99.90;;;;;;5091465;28;20057;-66
2023/10/05 12:40:47;;;;;;;7.07;1.70;;;17.90;99.90;;;;;;5089002;28;20057;-66
2023/10/05 12:43:16;;;;;;;4.80;1.40;;;18.00;99.90;;;;;;5091650;28;20063;-63
2023/10/05 12:45:43;;;;;;;9.55;1.50;;;18.20;99.90;;;;;;5085659;28;20446;-65
2023/10/05 12:48:11;;;;;;;8.40;2.47;;;18.10;99.90;;;;;;5080969;28;20093;-65
2023/10/05 12:50:39;;;;;;;4.63;1.40;;;18.30;99.90;;;;;;5096135;28;20016;-67
2023/10/05 12:53:05;;;;;;;6.93;1.70;;;18.40;99.90;;;;;;5070412;28;20454;-66
2023/10/05 12:55:32;;;;;;;9.82;1.50;;;18.50;99.90;;;;;;5088490;28;21078;-66
2023/10/05 12:57:58;;;;;;;8.70;1.48;;;18.60;99.90;;;;;;5092916;28;20020;-65
2023/10/05 13:00:28;;;;;;;3.58;1.27;;;18.30;99.90;;;;;;5095563;28;20020;-66
2023/10/05 13:02:54;;;;;;;3.75;1.40;;;18.60;99.90;;;;;;5070278;28;21083;-63
2023/10/05 13:05:28;;;;;;;7.45;1.95;;;18.40;99.90;;;;;;5089719;28;20393;-66
2023/10/05 13:07:54;;;;;;;6.45;1.52;;;18.20;99.90;;;;;;5094065;28;20072;-64
2023/10/05 13:10:26;;;;;;;4.47;1.52;;;18.20;99.90;;;;;;5093620;28;20503;-65
2023/10/05 13:13:09;;;;;;;8.35;1.50;;;18.10;99.90;;;;;;5087453;28;20036;-64
2023/10/05 13:15:36;;;;;;;6.95;1.95;;;17.70;99.90;;;;;;5088529;28;20127;-65
2023/10/05 13:18:17;;;;;;;2.53;1.50;;;17.60;99.90;;;;;;5103033;28;20484;-64
2023/10/05 13:20:51;;;;;;;6.97;2.00;;;17.40;99.90;;;;;;5091791;28;20043;-65
2023/10/05 13:23:24;;;;;;;5.25;1.58;;;17.30;99.90;;;;;;5088163;28;20024;-65
2023/10/05 13:25:51;;;;;;;4.20;1.33;;;17.20;99.90;;;;;;5089041;28;20055;-65
2023/10/05 13:28:21;;;;;;;6.40;1.50;;;17.30;99.90;;;;;;5092804;28;20024;-64
2023/10/05 13:30:47;;;;;;;8.00;1.55;;;17.40;99.90;;;;;;5085737;28;20126;-68